createdAt,value
2022-11-12T00:01:07.363Z,7.13
2022-11-12T00:03:35.662Z,7.10
2022-11-12T00:06:04.072Z,26.53
2022-11-12T00:08:32.347Z,7.60
2022-11-12T00:11:00.641Z,7.10
2022-11-12T00:13:28.851Z,7.57
2022-11-12T00:15:57.168Z,6.40
2022-11-12T00:18:27.250Z,6.60
2022-11-12T00:20:55.777Z,6.90
2022-11-12T00:23:24.158Z,6.33
2022-11-12T00:25:59.524Z,6.13
2022-11-12T00:28:29.499Z,6.47
2022-11-12T00:30:59.338Z,6.13
2022-11-12T00:33:28.947Z,6.37
2022-11-12T00:36:01.113Z,6.07
2022-11-12T00:38:32.142Z,5.70
2022-11-12T00:41:01.093Z,5.63
2022-11-12T00:43:29.520Z,5.97
2022-11-12T00:45:57.796Z,5.10
2022-11-12T00:48:26.341Z,5.67
2022-11-12T00:51:02.173Z,6.03
2022-11-12T00:53:30.562Z,6.23
2022-11-12T00:56:02.086Z,6.40
2022-11-12T00:58:31.313Z,6.30
2022-11-12T01:01:00.016Z,6.03
2022-11-12T01:03:29.741Z,6.87
2022-11-12T01:06:04.669Z,6.93
2022-11-12T01:08:32.946Z,6.40
2022-11-12T01:11:06.822Z,5.70
2022-11-12T01:13:37.796Z,6.20
2022-11-12T01:16:10.067Z,6.73
2022-11-12T01:18:38.330Z,6.23
2022-11-12T01:21:09.033Z,6.00
2022-11-12T01:23:38.305Z,5.67
2022-11-12T01:26:06.975Z,5.83
2022-11-12T01:28:35.550Z,6.33
2022-11-12T01:31:11.440Z,6.37
2022-11-12T01:33:39.940Z,6.10
2022-11-12T01:36:10.089Z,5.77
2022-11-12T01:38:38.613Z,5.60
2022-11-12T01:41:07.485Z,5.80
2022-11-12T01:43:35.767Z,5.60
2022-11-12T01:46:05.002Z,5.43
2022-11-12T01:48:35.729Z,5.63
2022-11-12T01:51:05.171Z,5.73
2022-11-12T01:53:36.181Z,5.90
2022-11-12T01:56:05.269Z,5.33
2022-11-12T01:58:33.805Z,5.47
2022-11-12T02:01:02.563Z,5.70
2022-11-12T02:03:30.939Z,6.10
2022-11-12T02:06:00.234Z,5.53
2022-11-12T02:08:29.948Z,5.67
2022-11-12T02:10:59.596Z,5.90
2022-11-12T02:13:45.608Z,5.23
2022-11-12T02:16:13.902Z,5.20
2022-11-12T02:18:42.283Z,5.37
2022-11-12T02:21:11.053Z,5.13
2022-11-12T02:23:40.809Z,6.57
2022-11-12T02:26:09.465Z,5.67
2022-11-12T02:28:37.730Z,6.17
2022-11-12T02:31:06.013Z,6.10
2022-11-12T02:33:34.285Z,6.07
2022-11-12T02:36:02.559Z,6.23
2022-11-12T02:38:30.910Z,6.40
2022-11-12T02:41:00.738Z,6.63
2022-11-12T02:43:29.141Z,6.80
2022-11-12T02:45:57.633Z,6.83
2022-11-12T02:48:26.163Z,6.73
2022-11-12T02:50:54.581Z,6.07
2022-11-12T02:53:22.796Z,7.00
2022-11-12T02:55:51.333Z,6.37
2022-11-12T02:58:22.772Z,6.80
2022-11-12T03:00:51.541Z,6.90
2022-11-12T03:03:19.832Z,7.23
2022-11-12T03:05:48.497Z,6.40
2022-11-12T03:08:16.842Z,6.80
2022-11-12T03:10:45.112Z,6.63
2022-11-12T03:13:13.399Z,6.43
2022-11-12T03:15:43.706Z,6.43
2022-11-12T03:18:11.916Z,6.37
2022-11-12T03:20:40.471Z,6.37
2022-11-12T03:23:09.655Z,6.07
2022-11-12T03:25:38.028Z,5.77
2022-11-12T03:28:07.563Z,6.40
2022-11-12T03:30:36.840Z,6.33
2022-11-12T03:33:07.026Z,6.47
2022-11-12T03:35:35.474Z,7.03
2022-11-12T03:38:03.825Z,6.33
2022-11-12T03:40:32.403Z,6.33
2022-11-12T03:43:00.805Z,6.23
2022-11-12T03:45:29.761Z,6.57
2022-11-12T03:47:58.863Z,5.87
2022-11-12T03:50:29.538Z,6.60
2022-11-12T03:52:58.816Z,6.23
2022-11-12T03:55:28.579Z,6.43
2022-11-12T03:57:56.918Z,6.00
2022-11-12T04:00:26.104Z,6.77
2022-11-12T04:02:54.509Z,6.53
2022-11-12T04:05:40.316Z,6.63
2022-11-12T04:08:32.977Z,6.97
2022-11-12T04:11:01.781Z,6.70
2022-11-12T04:13:29.443Z,6.53
2022-11-12T04:16:19.287Z,7.10
2022-11-12T04:19:06.339Z,7.17
2022-11-12T04:21:53.941Z,7.07
2022-11-12T04:24:39.174Z,6.70
2022-11-12T04:27:07.989Z,6.50
2022-11-12T04:29:53.682Z,6.43
2022-11-12T04:32:22.041Z,7.50
2022-11-12T04:34:50.283Z,7.07
2022-11-12T04:37:23.220Z,7.10
2022-11-12T04:39:53.168Z,7.53
2022-11-12T04:42:39.076Z,8.43
2022-11-12T04:45:08.471Z,7.77
2022-11-12T04:47:37.807Z,6.83
2022-11-12T04:50:07.110Z,7.97
2022-11-12T04:52:35.341Z,7.27
2022-11-12T04:55:05.064Z,6.90
2022-11-12T04:57:33.420Z,7.13
2022-11-12T05:00:03.294Z,7.60
2022-11-12T05:02:31.643Z,7.37
2022-11-12T05:05:00.339Z,7.17
2022-11-12T05:07:28.671Z,7.77
2022-11-12T05:09:56.892Z,7.10
2022-11-12T05:12:26.571Z,6.73
2022-11-12T05:14:54.828Z,7.00
2022-11-12T05:17:23.211Z,7.10
2022-11-12T05:19:51.451Z,7.67
2022-11-12T05:22:41.994Z,7.00
2022-11-12T05:25:08.433Z,7.57
2022-11-12T05:27:38.125Z,8.27
2022-11-12T05:30:07.817Z,7.40
2022-11-12T05:32:36.024Z,8.47
2022-11-12T05:35:04.317Z,8.67
2022-11-12T05:37:32.567Z,8.20
2022-11-12T05:40:00.832Z,7.23
2022-11-12T05:42:29.160Z,8.20
2022-11-12T05:44:58.727Z,7.37
2022-11-12T05:47:28.713Z,7.90
2022-11-12T05:49:56.964Z,7.93
2022-11-12T05:52:25.251Z,7.67
2022-11-12T05:54:53.510Z,7.70
2022-11-12T05:57:21.793Z,7.80
2022-11-12T05:59:50.103Z,8.07
2022-11-12T06:02:19.752Z,8.13
2022-11-12T06:04:48.114Z,8.83
2022-11-12T06:07:16.390Z,8.50
2022-11-12T06:09:44.626Z,8.27
2022-11-12T06:12:12.904Z,8.83
2022-11-12T06:14:41.148Z,8.20
2022-11-12T06:17:09.755Z,8.43
2022-11-12T06:19:39.365Z,7.53
2022-11-12T06:22:07.605Z,8.20
2022-11-12T06:24:35.833Z,8.07
2022-11-12T06:27:04.215Z,8.83
2022-11-12T06:29:32.466Z,7.90
2022-11-12T06:32:00.775Z,8.10
2022-11-12T06:34:29.341Z,7.77
2022-11-12T06:36:58.884Z,8.50
2022-11-12T06:39:27.119Z,7.87
2022-11-12T06:41:55.324Z,7.57
2022-11-12T06:44:23.563Z,7.93
2022-11-12T06:46:51.827Z,7.70
2022-11-12T06:49:20.101Z,8.13
2022-11-12T06:51:51.029Z,9.03
2022-11-12T06:54:20.988Z,7.20
2022-11-12T06:56:49.259Z,7.67
2022-11-12T06:59:17.714Z,8.00
2022-11-12T07:01:46.045Z,7.93
2022-11-12T07:04:14.454Z,8.47
2022-11-12T07:06:47.121Z,8.77
2022-11-12T07:09:15.716Z,7.70
2022-11-12T07:11:45.410Z,7.97
2022-11-12T07:14:13.646Z,8.23
2022-11-12T07:16:42.052Z,7.10
2022-11-12T07:19:11.853Z,7.87
2022-11-12T07:21:40.432Z,8.47
2022-11-12T07:24:11.280Z,8.53
2022-11-12T07:26:43.236Z,8.03
2022-11-12T07:29:30.142Z,9.50
2022-11-12T07:32:05.451Z,9.33
2022-11-12T07:34:33.863Z,8.70
2022-11-12T07:37:02.444Z,8.93
2022-11-12T07:39:30.698Z,8.10
2022-11-12T07:41:59.175Z,7.03
2022-11-12T07:44:28.931Z,6.00
2022-11-12T07:46:57.608Z,7.10
2022-11-12T07:49:26.088Z,6.50
2022-11-12T07:51:54.321Z,6.27
2022-11-12T07:54:25.117Z,6.10
2022-11-12T07:56:53.356Z,6.53
2022-11-12T07:59:21.709Z,6.20
2022-11-12T08:01:51.325Z,5.57
2022-11-12T08:04:19.646Z,6.30
2022-11-12T08:06:47.971Z,6.70
2022-11-12T08:09:16.230Z,6.00
2022-11-12T08:11:44.591Z,6.20
2022-11-12T08:14:15.670Z,6.40
2022-11-12T08:16:43.969Z,5.90
2022-11-12T08:19:13.595Z,6.23
2022-11-12T08:21:41.818Z,6.03
2022-11-12T08:24:10.488Z,5.63
2022-11-12T08:26:38.951Z,5.93
2022-11-12T08:29:08.870Z,6.00
2022-11-12T08:31:37.602Z,5.90
2022-11-12T08:34:12.464Z,5.67
2022-11-12T08:36:42.395Z,8.87
2022-11-12T08:39:10.804Z,6.67
2022-11-12T08:41:39.046Z,7.53
2022-11-12T08:44:08.927Z,6.63
2022-11-12T08:46:37.337Z,6.40
2022-11-12T08:49:05.655Z,6.27
2022-11-12T08:51:33.963Z,6.33
2022-11-12T08:54:03.724Z,7.23
2022-11-12T08:56:32.054Z,6.73
2022-11-12T08:59:08.267Z,6.40
2022-11-12T09:01:36.757Z,6.13
2022-11-12T09:04:05.290Z,7.10
2022-11-12T09:06:33.696Z,8.57
2022-11-12T09:09:01.964Z,8.40
2022-11-12T09:11:31.939Z,8.37
2022-11-12T09:14:00.297Z,8.47
2022-11-12T09:16:28.611Z,7.17
2022-11-12T09:18:56.843Z,7.07
2022-11-12T09:21:25.689Z,6.30
2022-11-12T09:23:54.196Z,6.77
2022-11-12T09:26:22.542Z,6.37
2022-11-12T09:28:54.938Z,6.80
2022-11-12T09:31:31.183Z,6.40
2022-11-12T09:34:10.487Z,6.43
2022-11-12T09:36:59.011Z,7.07
2022-11-12T09:39:27.535Z,6.43
2022-11-12T09:42:03.264Z,6.43
2022-11-12T09:44:36.819Z,6.00
2022-11-12T09:47:09.464Z,6.40
2022-11-12T09:49:40.853Z,6.00
2022-11-12T09:52:14.259Z,5.67
2022-11-12T09:54:44.290Z,6.10
2022-11-12T09:57:13.299Z,6.00
2022-11-12T09:59:44.157Z,5.83
2022-11-12T10:02:20.133Z,5.73
2022-11-12T10:04:56.858Z,7.70
2022-11-12T10:07:30.367Z,6.60
2022-11-12T10:10:03.417Z,5.30
2022-11-12T10:12:37.345Z,6.73
2022-11-12T10:15:39.664Z,5.83
2022-11-12T10:18:10.382Z,6.10
2022-11-12T10:20:44.033Z,6.20
2022-11-12T10:23:17.121Z,6.03
2022-11-12T10:25:46.520Z,6.13
2022-11-12T10:28:19.143Z,5.73
2022-11-12T10:30:48.848Z,5.25
2022-11-12T10:33:17.224Z,5.43
2022-11-12T10:35:45.448Z,5.53
2022-11-12T10:38:14.981Z,7.47
2022-11-12T10:40:43.703Z,5.93
2022-11-12T10:43:22.688Z,6.55
2022-11-12T10:45:52.855Z,5.85
2022-11-12T10:48:26.805Z,4.90
2022-11-12T10:50:56.277Z,5.28
2022-11-12T10:53:32.687Z,4.93
2022-11-12T10:56:01.606Z,4.70
2022-11-12T10:58:30.096Z,5.07
2022-11-12T11:01:01.144Z,5.03
2022-11-12T11:03:31.449Z,5.25
2022-11-12T11:06:01.340Z,4.60
2022-11-12T11:08:37.579Z,4.65
2022-11-12T11:11:16.273Z,5.10
2022-11-12T11:13:44.964Z,4.68
2022-11-12T11:16:15.798Z,4.55
2022-11-12T11:18:47.169Z,5.03
2022-11-12T11:21:23.323Z,4.47
2022-11-12T11:23:56.923Z,4.35
2022-11-12T11:26:31.417Z,4.47
2022-11-12T11:29:02.469Z,4.93
2022-11-12T11:31:39.838Z,4.97
2022-11-12T11:34:15.675Z,5.32
2022-11-12T11:36:47.489Z,4.38
2022-11-12T11:39:20.074Z,4.82
2022-11-12T11:41:56.195Z,4.75
2022-11-12T11:44:29.815Z,4.40
2022-11-12T11:47:07.475Z,4.20
2022-11-12T11:49:42.024Z,4.30
2022-11-12T11:52:16.550Z,4.47
2022-11-12T11:54:53.291Z,4.30
2022-11-12T11:57:23.379Z,5.00
2022-11-12T11:59:59.405Z,4.68
2022-11-12T12:02:51.208Z,4.60
2022-11-12T12:05:28.995Z,5.47
2022-11-12T12:08:00.360Z,5.70
2022-11-12T12:11:01.374Z,6.38
2022-11-12T12:13:27.122Z,5.05
2022-11-12T12:16:07.578Z,5.00
2022-11-12T12:18:41.364Z,5.90
2022-11-12T12:21:13.964Z,5.28
2022-11-12T12:23:43.613Z,5.50
2022-11-12T12:26:14.772Z,5.55
2022-11-12T12:28:46.900Z,5.15
2022-11-12T12:31:16.915Z,4.75
2022-11-12T12:33:48.573Z,5.40
2022-11-12T12:36:18.721Z,4.63
2022-11-12T12:38:50.047Z,5.60
2022-11-12T12:41:20.782Z,4.85
2022-11-12T12:43:51.931Z,5.40
2022-11-12T12:46:22.708Z,4.85
2022-11-12T12:48:54.060Z,4.60
2022-11-12T12:51:22.753Z,4.50
2022-11-12T12:53:50.958Z,4.57
2022-11-12T12:56:34.092Z,4.75
2022-11-12T12:59:03.865Z,5.18
2022-11-12T13:01:34.109Z,5.05
2022-11-12T13:04:04.936Z,4.45
2022-11-12T13:06:34.314Z,5.22
2022-11-12T13:09:04.286Z,4.80
2022-11-12T13:12:09.826Z,4.57
2022-11-12T13:15:10.738Z,4.70
2022-11-12T13:17:50.174Z,4.72
2022-11-12T13:20:33.695Z,5.15
2022-11-12T13:23:02.347Z,4.80
2022-11-12T13:25:32.120Z,4.90
2022-11-12T13:28:07.496Z,6.88
2022-11-12T13:30:54.471Z,4.88
2022-11-12T13:33:26.211Z,4.50
2022-11-12T13:36:15.722Z,4.50
2022-11-12T13:38:44.036Z,4.80
2022-11-12T13:41:15.879Z,4.60
2022-11-12T13:43:45.221Z,4.78
2022-11-12T13:46:25.985Z,4.40
2022-11-12T13:48:57.392Z,4.40
2022-11-12T13:51:30.420Z,4.47
2022-11-12T13:53:58.687Z,4.18
2022-11-12T13:56:28.925Z,4.43
2022-11-12T13:58:57.563Z,4.30
2022-11-12T14:01:26.260Z,4.55
2022-11-12T14:03:54.839Z,4.28
2022-11-12T14:06:26.504Z,4.28
2022-11-12T14:09:15.690Z,4.07
2022-11-12T14:11:54.231Z,4.40
2022-11-12T14:14:27.550Z,4.22
2022-11-12T14:17:01.447Z,4.53
2022-11-12T14:19:38.719Z,4.03
2022-11-12T14:22:14.593Z,4.00
2022-11-12T14:24:43.092Z,4.20
2022-11-12T14:27:36.231Z,3.50
2022-11-12T14:30:13.279Z,2.97
2022-11-12T14:32:42.145Z,3.10
2022-11-12T14:35:27.988Z,3.13
2022-11-12T14:37:59.027Z,3.00
2022-11-12T14:40:28.983Z,2.77
2022-11-12T14:42:58.568Z,2.83
2022-11-12T14:45:30.062Z,3.33
2022-11-12T14:48:02.594Z,3.50
2022-11-12T14:50:37.461Z,9.40
2022-11-12T14:53:11.576Z,4.10
2022-11-12T14:55:40.797Z,4.90
2022-11-12T14:58:14.777Z,8.60
2022-11-12T15:00:44.763Z,9.37
2022-11-12T15:03:15.355Z,7.43
2022-11-12T15:06:01.189Z,9.60
2022-11-12T15:08:33.716Z,4.53
2022-11-12T15:11:21.875Z,5.00
2022-11-12T15:13:52.745Z,7.83
2022-11-12T15:16:23.066Z,7.97
2022-11-12T15:19:09.419Z,5.80
2022-11-12T15:24:18.860Z,7.00
2022-11-12T15:26:47.925Z,7.00
2022-11-12T15:29:31.557Z,6.57
2022-11-12T15:32:01.192Z,6.97
2022-11-12T15:34:31.460Z,7.13
2022-11-12T15:37:00.687Z,7.77
2022-11-12T15:39:29.803Z,6.53
2022-11-12T15:41:58.979Z,7.00
2022-11-12T15:44:27.433Z,7.40
2022-11-12T15:46:58.800Z,14.70
2022-11-12T15:49:27.247Z,7.90
2022-11-12T15:51:55.527Z,7.80
2022-11-12T15:54:24.004Z,6.87
2022-11-12T15:56:53.782Z,7.50
2022-11-12T15:59:22.053Z,7.20
2022-11-12T16:01:50.375Z,7.33
2022-11-12T16:04:20.195Z,7.57
2022-11-12T16:06:48.500Z,7.20
2022-11-12T16:09:16.824Z,7.67
2022-11-12T16:11:45.069Z,6.80
2022-11-12T16:14:14.803Z,7.30
2022-11-12T16:16:43.131Z,7.23
2022-11-12T16:19:14.830Z,7.13
2022-11-12T16:21:44.602Z,8.07
2022-11-12T16:24:13.245Z,7.67
2022-11-12T16:26:41.739Z,8.63
2022-11-12T16:29:13.380Z,8.20
2022-11-12T16:31:42.953Z,8.20
2022-11-12T16:34:11.315Z,7.40
2022-11-12T16:36:39.975Z,7.50
2022-11-12T16:39:11.333Z,8.47
2022-11-12T16:41:39.626Z,8.03
2022-11-12T16:44:08.007Z,8.43
2022-11-12T16:46:39.289Z,7.77
2022-11-12T16:49:07.956Z,7.20
2022-11-12T16:51:36.312Z,8.63
2022-11-12T16:54:04.701Z,11.77
2022-11-12T16:56:36.127Z,11.23
2022-11-12T16:59:04.497Z,28.30
2022-11-12T17:01:34.536Z,21.23
2022-11-12T17:04:03.222Z,17.93
2022-11-12T17:06:36.680Z,20.40
2022-11-12T17:09:06.189Z,25.30
2022-11-12T17:11:36.403Z,13.57
2022-11-12T17:14:05.809Z,11.87
2022-11-12T17:16:34.466Z,13.00
2022-11-12T17:19:03.064Z,16.00
2022-11-12T17:21:31.672Z,22.27
2022-11-12T17:24:00.002Z,24.63
2022-11-12T17:26:28.514Z,21.33
2022-11-12T17:29:03.504Z,16.13
2022-11-12T17:31:36.074Z,19.00
2022-11-12T17:34:05.922Z,19.60
2022-11-12T17:36:36.927Z,16.57
2022-11-12T17:39:10.081Z,19.30
2022-11-12T17:41:38.332Z,20.60
2022-11-12T17:44:08.260Z,19.77
2022-11-12T17:46:37.465Z,19.10
2022-11-12T17:49:05.825Z,20.70
2022-11-12T17:51:34.133Z,18.33
2022-11-12T17:54:02.450Z,17.63
2022-11-12T17:56:36.791Z,16.03
2022-11-12T17:59:05.797Z,15.30
2022-11-12T18:01:35.944Z,14.60
2022-11-12T18:04:04.221Z,14.73
2022-11-12T18:06:33.426Z,14.77
2022-11-12T18:09:02.114Z,15.17
2022-11-12T18:11:31.516Z,15.23
2022-11-12T18:13:59.751Z,12.70
2022-11-12T18:16:29.507Z,13.23
2022-11-12T18:18:59.300Z,12.97
2022-11-12T18:21:28.423Z,12.80
2022-11-12T18:23:56.836Z,13.77
2022-11-12T18:26:25.110Z,15.77
2022-11-12T18:28:54.019Z,14.93
2022-11-12T18:31:22.717Z,16.37
2022-11-12T18:33:51.437Z,15.20
2022-11-12T18:36:24.204Z,16.67
2022-11-12T18:38:52.924Z,16.90
2022-11-12T18:41:25.477Z,16.93
2022-11-12T18:43:53.799Z,16.90
2022-11-12T18:46:22.142Z,16.67
2022-11-12T18:48:50.840Z,16.00
2022-11-12T18:51:20.065Z,17.43
2022-11-12T18:53:49.931Z,16.80
2022-11-12T18:56:20.831Z,16.53
2022-11-12T18:58:49.227Z,17.23
2022-11-12T19:01:20.895Z,17.33
2022-11-12T19:03:49.806Z,16.40
2022-11-12T19:06:18.054Z,14.40
2022-11-12T19:08:46.418Z,15.07
2022-11-12T19:11:18.617Z,14.33
2022-11-12T19:13:47.310Z,15.40
2022-11-12T19:16:17.107Z,15.17
2022-11-12T19:18:45.704Z,15.87
2022-11-12T19:21:14.589Z,14.43
2022-11-12T19:23:43.471Z,12.57
2022-11-12T19:26:13.456Z,12.80
2022-11-12T19:28:43.498Z,13.20
2022-11-12T19:31:14.560Z,11.67
2022-11-12T19:33:42.925Z,11.90
2022-11-12T19:36:12.161Z,13.10
2022-11-12T19:38:40.582Z,14.33
2022-11-12T19:41:10.566Z,13.80
2022-11-12T19:43:41.690Z,13.17
2022-11-12T19:46:11.772Z,13.27
2022-11-12T19:48:40.160Z,13.83
2022-11-12T19:51:09.536Z,12.77
2022-11-12T19:53:40.809Z,12.93
2022-11-12T19:56:09.299Z,13.27
2022-11-12T19:58:37.568Z,12.70
2022-11-12T20:01:06.109Z,13.00
2022-11-12T20:03:35.780Z,13.97
2022-11-12T20:06:04.321Z,13.70
2022-11-12T20:08:32.596Z,15.77
2022-11-12T20:11:01.495Z,14.87
2022-11-12T20:13:29.982Z,18.07
2022-11-12T20:15:58.209Z,16.80
2022-11-12T20:18:27.178Z,15.77
2022-11-12T20:20:57.563Z,17.37
2022-11-12T20:23:26.939Z,18.03
2022-11-12T20:25:55.502Z,19.13
2022-11-12T20:28:23.798Z,21.90
2022-11-12T20:30:52.016Z,22.87
2022-11-12T20:33:20.252Z,18.80
2022-11-12T20:35:48.453Z,21.83
2022-11-12T20:38:18.160Z,23.97
2022-11-12T20:40:46.393Z,24.27
2022-11-12T20:43:14.625Z,24.57
2022-11-12T20:45:42.873Z,23.90
2022-11-12T20:48:11.117Z,23.40
2022-11-12T20:50:41.763Z,23.57
2022-11-12T20:53:21.351Z,23.17
2022-11-12T20:55:49.640Z,23.20
2022-11-12T20:58:17.885Z,23.03
2022-11-12T21:00:46.129Z,24.43
2022-11-12T21:03:14.493Z,24.40
2022-11-12T21:05:42.783Z,21.03
2022-11-12T21:08:11.076Z,21.47
2022-11-12T21:10:40.703Z,22.83
2022-11-12T21:13:09.023Z,21.60
2022-11-12T21:15:37.281Z,22.03
2022-11-12T21:18:05.592Z,23.07
2022-11-12T21:20:33.845Z,24.57
2022-11-12T21:23:02.104Z,24.43
2022-11-12T21:25:30.507Z,28.10
2022-11-12T21:28:00.739Z,30.20
2022-11-12T21:30:29.204Z,29.37
2022-11-12T21:32:57.676Z,29.37
2022-11-12T21:35:27.489Z,26.90
2022-11-12T21:37:55.776Z,28.63
2022-11-12T21:40:27.699Z,31.03
2022-11-12T21:42:58.062Z,30.20
2022-11-12T21:45:27.738Z,30.30
2022-11-12T21:47:56.040Z,31.67
2022-11-12T21:50:24.282Z,34.30
2022-11-12T21:52:52.709Z,33.60
2022-11-12T21:55:21.143Z,32.07
2022-11-12T21:57:49.525Z,31.57
2022-11-12T22:00:41.017Z,31.53
2022-11-12T22:03:08.332Z,30.87
2022-11-12T22:05:38.809Z,29.97
2022-11-12T22:08:07.203Z,29.63
2022-11-12T22:10:35.505Z,29.53
2022-11-12T22:13:25.758Z,29.33
2022-11-12T22:15:52.660Z,33.17
2022-11-12T22:18:22.333Z,32.03
2022-11-12T22:20:57.306Z,35.17
2022-11-12T22:23:25.636Z,39.10
2022-11-12T22:25:54.328Z,38.57
2022-11-12T22:28:22.596Z,44.57
2022-11-12T22:30:50.984Z,43.93
2022-11-12T22:33:19.238Z,42.13
2022-11-12T22:35:48.951Z,39.50
2022-11-12T22:38:17.221Z,34.63
2022-11-12T22:40:45.442Z,34.30
2022-11-12T22:43:13.730Z,27.73
2022-11-12T22:45:42.504Z,28.33
2022-11-12T22:48:10.804Z,28.13
2022-11-12T22:50:39.042Z,29.57
2022-11-12T22:53:08.854Z,29.70
2022-11-12T22:55:37.078Z,28.77
2022-11-12T22:58:05.368Z,27.77
2022-11-12T23:00:33.872Z,27.17
2022-11-12T23:03:02.138Z,27.30
2022-11-12T23:05:30.477Z,27.00
2022-11-12T23:07:59.785Z,27.30
2022-11-12T23:10:29.603Z,25.07
2022-11-12T23:12:57.855Z,25.70
2022-11-12T23:15:26.119Z,27.97
2022-11-12T23:17:54.444Z,27.60
2022-11-12T23:20:22.741Z,29.87
2022-11-12T23:22:51.631Z,28.07
2022-11-12T23:25:19.851Z,29.10
2022-11-12T23:27:49.459Z,29.80
2022-11-12T23:30:17.928Z,29.60
2022-11-12T23:32:46.208Z,29.47
2022-11-12T23:35:14.481Z,30.03
2022-11-12T23:37:42.759Z,28.30
2022-11-12T23:40:11.416Z,28.17
2022-11-12T23:42:39.684Z,26.57
2022-11-12T23:45:10.325Z,27.77
2022-11-12T23:47:38.623Z,25.17
2022-11-12T23:50:07.450Z,24.50
2022-11-12T23:52:35.696Z,26.53
2022-11-12T23:55:04.370Z,25.77
2022-11-12T23:57:32.922Z,25.93
